sensor_id;sensor_type;location;lat;lon;timestamp;P1;durP1;ratioP1;P2;durP2;ratioP2
9508;SDS011;4792;50.088;8.122;2023-01-19T00:01:28;9.67;;;5.37;;
9508;SDS011;4792;50.088;8.122;2023-01-19T00:03:56;13.33;;;5.70;;
9508;SDS011;4792;50.088;8.122;2023-01-19T00:06:25;10.37;;;5.40;;
9508;SDS011;4792;50.088;8.122;2023-01-19T00:08:53;12.47;;;5.37;;
9508;SDS011;4792;50.088;8.122;2023-01-19T00:11:21;8.50;;;5.50;;
9508;SDS011;4792;50.088;8.122;2023-01-19T00:13:50;9.00;;;5.27;;
9508;SDS011;4792;50.088;8.122;2023-01-19T00:16:19;8.27;;;5.23;;
9508;SDS011;4792;50.088;8.122;2023-01-19T00:18:49;9.37;;;5.63;;
9508;SDS011;4792;50.088;8.122;2023-01-19T00:21:18;9.43;;;5.33;;
9508;SDS011;4792;50.088;8.122;2023-01-19T00:23:47;12.03;;;6.47;;
9508;SDS011;4792;50.088;8.122;2023-01-19T00:26:18;7.17;;;4.87;;
9508;SDS011;4792;50.088;8.122;2023-01-19T00:28:48;12.37;;;5.97;;
9508;SDS011;4792;50.088;8.122;2023-01-19T00:31:17;11.33;;;5.77;;
9508;SDS011;4792;50.088;8.122;2023-01-19T00:33:47;10.33;;;5.73;;
9508;SDS011;4792;50.088;8.122;2023-01-19T00:36:17;11.67;;;5.83;;
9508;SDS011;4792;50.088;8.122;2023-01-19T00:38:45;13.17;;;5.90;;
9508;SDS011;4792;50.088;8.122;2023-01-19T00:41:13;10.17;;;5.70;;
9508;SDS011;4792;50.088;8.122;2023-01-19T00:43:42;8.30;;;5.23;;
9508;SDS011;4792;50.088;8.122;2023-01-19T00:46:09;10.57;;;5.73;;
9508;SDS011;4792;50.088;8.122;2023-01-19T00:48:38;9.47;;;5.17;;
9508;SDS011;4792;50.088;8.122;2023-01-19T00:51:06;10.97;;;4.97;;
9508;SDS011;4792;50.088;8.122;2023-01-19T00:53:34;10.33;;;5.73;;
9508;SDS011;4792;50.088;8.122;2023-01-19T00:56:03;17.17;;;5.57;;
9508;SDS011;4792;50.088;8.122;2023-01-19T00:58:31;9.13;;;5.57;;
9508;SDS011;4792;50.088;8.122;2023-01-19T01:00:59;13.57;;;6.27;;
9508;SDS011;4792;50.088;8.122;2023-01-19T01:03:30;11.33;;;5.83;;
9508;SDS011;4792;50.088;8.122;2023-01-19T01:05:59;10.67;;;5.87;;
9508;SDS011;4792;50.088;8.122;2023-01-19T01:08:28;10.13;;;6.57;;
9508;SDS011;4792;50.088;8.122;2023-01-19T01:10:57;10.63;;;5.63;;
9508;SDS011;4792;50.088;8.122;2023-01-19T01:13:25;10.47;;;5.83;;
9508;SDS011;4792;50.088;8.122;2023-01-19T01:15:55;9.97;;;5.83;;
9508;SDS011;4792;50.088;8.122;2023-01-19T01:18:23;10.33;;;6.03;;
9508;SDS011;4792;50.088;8.122;2023-01-19T01:20:52;11.90;;;6.43;;
9508;SDS011;4792;50.088;8.122;2023-01-19T01:23:28;11.27;;;6.00;;
9508;SDS011;4792;50.088;8.122;2023-01-19T01:25:56;10.30;;;6.40;;
9508;SDS011;4792;50.088;8.122;2023-01-19T01:28:24;8.43;;;5.17;;
9508;SDS011;4792;50.088;8.122;2023-01-19T01:30:53;11.67;;;6.47;;
9508;SDS011;4792;50.088;8.122;2023-01-19T01:33:22;8.53;;;5.80;;
9508;SDS011;4792;50.088;8.122;2023-01-19T01:36:09;9.33;;;5.30;;
9508;SDS011;4792;50.088;8.122;2023-01-19T01:38:37;8.93;;;5.50;;
9508;SDS011;4792;50.088;8.122;2023-01-19T01:41:06;10.63;;;5.57;;
9508;SDS011;4792;50.088;8.122;2023-01-19T01:43:42;16.03;;;5.67;;
9508;SDS011;4792;50.088;8.122;2023-01-19T01:46:13;9.97;;;5.47;;
9508;SDS011;4792;50.088;8.122;2023-01-19T01:48:43;8.83;;;5.80;;
9508;SDS011;4792;50.088;8.122;2023-01-19T01:51:19;12.53;;;5.97;;
9508;SDS011;4792;50.088;8.122;2023-01-19T01:53:59;11.77;;;6.37;;
9508;SDS011;4792;50.088;8.122;2023-01-19T01:56:35;8.63;;;5.97;;
9508;SDS011;4792;50.088;8.122;2023-01-19T01:59:06;12.43;;;6.73;;
9508;SDS011;4792;50.088;8.122;2023-01-19T02:01:37;12.07;;;5.87;;
9508;SDS011;4792;50.088;8.122;2023-01-19T02:04:25;12.30;;;7.03;;
9508;SDS011;4792;50.088;8.122;2023-01-19T02:06:54;13.33;;;7.27;;
9508;SDS011;4792;50.088;8.122;2023-01-19T02:09:40;11.27;;;7.00;;
9508;SDS011;4792;50.088;8.122;2023-01-19T02:12:25;10.53;;;6.50;;
9508;SDS011;4792;50.088;8.122;2023-01-19T02:15:13;12.33;;;6.90;;
9508;SDS011;4792;50.088;8.122;2023-01-19T02:17:43;10.77;;;6.47;;
9508;SDS011;4792;50.088;8.122;2023-01-19T02:20:11;11.93;;;7.27;;
9508;SDS011;4792;50.088;8.122;2023-01-19T02:22:43;10.67;;;6.60;;
9508;SDS011;4792;50.088;8.122;2023-01-19T02:25:17;10.47;;;6.77;;
9508;SDS011;4792;50.088;8.122;2023-01-19T02:27:46;10.90;;;7.10;;
9508;SDS011;4792;50.088;8.122;2023-01-19T02:30:15;13.10;;;6.90;;
9508;SDS011;4792;50.088;8.122;2023-01-19T02:32:44;13.23;;;6.83;;
9508;SDS011;4792;50.088;8.122;2023-01-19T02:35:12;12.63;;;6.87;;
9508;SDS011;4792;50.088;8.122;2023-01-19T02:37:40;12.63;;;7.47;;
9508;SDS011;4792;50.088;8.122;2023-01-19T02:40:11;14.67;;;7.77;;
9508;SDS011;4792;50.088;8.122;2023-01-19T02:42:43;13.73;;;7.83;;
9508;SDS011;4792;50.088;8.122;2023-01-19T02:45:15;14.97;;;7.50;;
9508;SDS011;4792;50.088;8.122;2023-01-19T02:47:48;11.70;;;6.93;;
9508;SDS011;4792;50.088;8.122;2023-01-19T02:50:34;11.73;;;6.87;;
9508;SDS011;4792;50.088;8.122;2023-01-19T02:53:17;11.10;;;7.43;;
9508;SDS011;4792;50.088;8.122;2023-01-19T02:56:01;15.17;;;7.87;;
9508;SDS011;4792;50.088;8.122;2023-01-19T02:58:46;12.87;;;8.20;;
9508;SDS011;4792;50.088;8.122;2023-01-19T03:01:20;12.27;;;7.40;;
9508;SDS011;4792;50.088;8.122;2023-01-19T03:03:56;13.07;;;7.90;;
9508;SDS011;4792;50.088;8.122;2023-01-19T03:06:32;13.37;;;8.00;;
9508;SDS011;4792;50.088;8.122;2023-01-19T03:09:10;14.07;;;7.73;;
9508;SDS011;4792;50.088;8.122;2023-01-19T03:11:52;13.60;;;7.93;;
9508;SDS011;4792;50.088;8.122;2023-01-19T03:14:29;13.80;;;8.33;;
9508;SDS011;4792;50.088;8.122;2023-01-19T03:17:02;10.33;;;7.40;;
9508;SDS011;4792;50.088;8.122;2023-01-19T03:19:33;13.93;;;7.83;;
9508;SDS011;4792;50.088;8.122;2023-01-19T03:22:05;15.67;;;9.23;;
9508;SDS011;4792;50.088;8.122;2023-01-19T03:24:37;13.13;;;8.00;;
9508;SDS011;4792;50.088;8.122;2023-01-19T03:27:09;13.50;;;8.50;;
9508;SDS011;4792;50.088;8.122;2023-01-19T03:29:43;21.37;;;9.20;;
9508;SDS011;4792;50.088;8.122;2023-01-19T03:32:17;12.93;;;8.67;;
9508;SDS011;4792;50.088;8.122;2023-01-19T03:34:48;18.40;;;8.80;;
9508;SDS011;4792;50.088;8.122;2023-01-19T03:37:18;14.37;;;8.97;;
9508;SDS011;4792;50.088;8.122;2023-01-19T03:39:49;13.57;;;8.67;;
9508;SDS011;4792;50.088;8.122;2023-01-19T03:42:17;18.20;;;9.10;;
9508;SDS011;4792;50.088;8.122;2023-01-19T03:44:47;14.47;;;8.93;;
9508;SDS011;4792;50.088;8.122;2023-01-19T03:47:18;14.23;;;9.03;;
9508;SDS011;4792;50.088;8.122;2023-01-19T03:49:47;16.60;;;9.10;;
9508;SDS011;4792;50.088;8.122;2023-01-19T03:52:24;19.17;;;10.07;;
9508;SDS011;4792;50.088;8.122;2023-01-19T03:54:53;16.30;;;10.20;;
9508;SDS011;4792;50.088;8.122;2023-01-19T03:57:22;19.53;;;10.17;;
9508;SDS011;4792;50.088;8.122;2023-01-19T03:59:51;15.60;;;10.13;;
9508;SDS011;4792;50.088;8.122;2023-01-19T04:02:19;18.83;;;10.30;;
9508;SDS011;4792;50.088;8.122;2023-01-19T04:04:48;17.93;;;10.20;;
9508;SDS011;4792;50.088;8.122;2023-01-19T04:07:16;17.87;;;10.53;;
9508;SDS011;4792;50.088;8.122;2023-01-19T04:09:44;19.40;;;10.60;;
9508;SDS011;4792;50.088;8.122;2023-01-19T04:12:12;19.33;;;10.43;;
9508;SDS011;4792;50.088;8.122;2023-01-19T04:14:40;23.73;;;11.33;;
9508;SDS011;4792;50.088;8.122;2023-01-19T04:17:10;18.90;;;10.43;;
9508;SDS011;4792;50.088;8.122;2023-01-19T04:19:38;17.37;;;10.27;;
9508;SDS011;4792;50.088;8.122;2023-01-19T04:22:06;20.10;;;10.40;;
9508;SDS011;4792;50.088;8.122;2023-01-19T04:24:34;17.83;;;11.00;;
9508;SDS011;4792;50.088;8.122;2023-01-19T04:27:02;18.83;;;11.57;;
9508;SDS011;4792;50.088;8.122;2023-01-19T04:29:30;19.57;;;12.03;;
9508;SDS011;4792;50.088;8.122;2023-01-19T04:31:58;17.10;;;10.93;;
9508;SDS011;4792;50.088;8.122;2023-01-19T04:34:28;19.43;;;11.93;;
9508;SDS011;4792;50.088;8.122;2023-01-19T04:36:56;18.50;;;11.40;;
9508;SDS011;4792;50.088;8.122;2023-01-19T04:39:24;19.50;;;11.87;;
9508;SDS011;4792;50.088;8.122;2023-01-19T04:41:52;19.60;;;13.07;;
9508;SDS011;4792;50.088;8.122;2023-01-19T04:44:22;21.00;;;13.00;;
9508;SDS011;4792;50.088;8.122;2023-01-19T04:46:50;22.13;;;12.20;;
9508;SDS011;4792;50.088;8.122;2023-01-19T04:49:18;20.57;;;11.07;;
9508;SDS011;4792;50.088;8.122;2023-01-19T04:51:48;18.40;;;11.80;;
9508;SDS011;4792;50.088;8.122;2023-01-19T04:54:18;17.73;;;11.83;;
9508;SDS011;4792;50.088;8.122;2023-01-19T04:56:47;24.23;;;12.10;;
9508;SDS011;4792;50.088;8.122;2023-01-19T04:59:15;23.10;;;12.03;;
9508;SDS011;4792;50.088;8.122;2023-01-19T05:01:43;27.17;;;13.83;;
9508;SDS011;4792;50.088;8.122;2023-01-19T05:04:11;20.50;;;12.37;;
9508;SDS011;4792;50.088;8.122;2023-01-19T05:06:39;18.93;;;11.53;;
9508;SDS011;4792;50.088;8.122;2023-01-19T05:09:09;21.37;;;13.00;;
9508;SDS011;4792;50.088;8.122;2023-01-19T05:11:40;21.07;;;12.63;;
9508;SDS011;4792;50.088;8.122;2023-01-19T05:14:08;23.77;;;12.83;;
9508;SDS011;4792;50.088;8.122;2023-01-19T05:16:36;24.47;;;13.67;;
9508;SDS011;4792;50.088;8.122;2023-01-19T05:19:04;18.80;;;12.20;;
9508;SDS011;4792;50.088;8.122;2023-01-19T05:21:33;29.90;;;13.23;;
9508;SDS011;4792;50.088;8.122;2023-01-19T05:24:01;21.57;;;12.70;;
9508;SDS011;4792;50.088;8.122;2023-01-19T05:26:30;20.27;;;12.13;;
9508;SDS011;4792;50.088;8.122;2023-01-19T05:28:58;18.87;;;12.33;;
9508;SDS011;4792;50.088;8.122;2023-01-19T05:31:27;18.77;;;12.37;;
9508;SDS011;4792;50.088;8.122;2023-01-19T05:33:55;20.73;;;12.30;;
9508;SDS011;4792;50.088;8.122;2023-01-19T05:36:23;22.33;;;12.20;;
9508;SDS011;4792;50.088;8.122;2023-01-19T05:38:52;28.27;;;13.63;;
9508;SDS011;4792;50.088;8.122;2023-01-19T05:41:20;20.17;;;12.33;;
9508;SDS011;4792;50.088;8.122;2023-01-19T05:43:49;20.77;;;12.03;;
9508;SDS011;4792;50.088;8.122;2023-01-19T05:46:17;20.93;;;11.20;;
9508;SDS011;4792;50.088;8.122;2023-01-19T05:48:45;19.57;;;12.10;;
9508;SDS011;4792;50.088;8.122;2023-01-19T05:51:13;21.90;;;12.00;;
9508;SDS011;4792;50.088;8.122;2023-01-19T05:53:41;19.23;;;11.57;;
9508;SDS011;4792;50.088;8.122;2023-01-19T05:56:10;19.57;;;11.47;;
9508;SDS011;4792;50.088;8.122;2023-01-19T05:58:38;19.80;;;11.93;;
9508;SDS011;4792;50.088;8.122;2023-01-19T06:01:08;21.80;;;11.27;;
9508;SDS011;4792;50.088;8.122;2023-01-19T06:03:36;23.47;;;11.50;;
9508;SDS011;4792;50.088;8.122;2023-01-19T06:06:06;17.67;;;11.23;;
9508;SDS011;4792;50.088;8.122;2023-01-19T06:08:34;18.70;;;11.30;;
9508;SDS011;4792;50.088;8.122;2023-01-19T06:11:04;16.60;;;10.90;;
9508;SDS011;4792;50.088;8.122;2023-01-19T06:13:32;17.57;;;10.53;;
9508;SDS011;4792;50.088;8.122;2023-01-19T06:16:01;18.87;;;11.23;;
9508;SDS011;4792;50.088;8.122;2023-01-19T06:18:31;19.33;;;11.70;;
9508;SDS011;4792;50.088;8.122;2023-01-19T06:21:01;22.03;;;11.83;;
9508;SDS011;4792;50.088;8.122;2023-01-19T06:23:31;18.10;;;11.27;;
9508;SDS011;4792;50.088;8.122;2023-01-19T06:25:59;17.80;;;11.00;;
9508;SDS011;4792;50.088;8.122;2023-01-19T06:28:28;16.80;;;10.57;;
9508;SDS011;4792;50.088;8.122;2023-01-19T06:30:56;21.07;;;10.93;;
9508;SDS011;4792;50.088;8.122;2023-01-19T06:33:25;18.07;;;11.20;;
9508;SDS011;4792;50.088;8.122;2023-01-19T06:35:55;21.67;;;11.87;;
9508;SDS011;4792;50.088;8.122;2023-01-19T06:38:23;22.23;;;11.70;;
9508;SDS011;4792;50.088;8.122;2023-01-19T06:40:51;18.00;;;11.07;;
9508;SDS011;4792;50.088;8.122;2023-01-19T06:43:24;17.37;;;10.90;;
9508;SDS011;4792;50.088;8.122;2023-01-19T06:45:52;19.50;;;11.33;;
9508;SDS011;4792;50.088;8.122;2023-01-19T06:48:21;18.30;;;10.90;;
9508;SDS011;4792;50.088;8.122;2023-01-19T06:50:50;17.93;;;11.43;;
9508;SDS011;4792;50.088;8.122;2023-01-19T06:53:19;18.30;;;10.67;;
9508;SDS011;4792;50.088;8.122;2023-01-19T06:55:47;20.37;;;11.67;;
9508;SDS011;4792;50.088;8.122;2023-01-19T06:58:16;19.60;;;12.27;;
9508;SDS011;4792;50.088;8.122;2023-01-19T07:00:44;21.50;;;11.60;;
9508;SDS011;4792;50.088;8.122;2023-01-19T07:03:16;19.07;;;11.87;;
9508;SDS011;4792;50.088;8.122;2023-01-19T07:05:49;19.50;;;12.17;;
9508;SDS011;4792;50.088;8.122;2023-01-19T07:08:17;17.03;;;11.97;;
9508;SDS011;4792;50.088;8.122;2023-01-19T07:10:47;22.23;;;11.93;;
9508;SDS011;4792;50.088;8.122;2023-01-19T07:13:36;20.90;;;12.67;;
9508;SDS011;4792;50.088;8.122;2023-01-19T07:16:06;23.40;;;13.27;;
9508;SDS011;4792;50.088;8.122;2023-01-19T07:18:35;18.47;;;12.73;;
9508;SDS011;4792;50.088;8.122;2023-01-19T07:21:04;21.80;;;13.73;;
9508;SDS011;4792;50.088;8.122;2023-01-19T07:23:34;28.27;;;14.90;;
9508;SDS011;4792;50.088;8.122;2023-01-19T07:26:03;26.70;;;14.03;;
9508;SDS011;4792;50.088;8.122;2023-01-19T07:28:32;21.90;;;13.57;;
9508;SDS011;4792;50.088;8.122;2023-01-19T07:31:00;25.20;;;14.70;;
9508;SDS011;4792;50.088;8.122;2023-01-19T07:33:28;24.93;;;14.70;;
9508;SDS011;4792;50.088;8.122;2023-01-19T07:35:57;24.53;;;14.47;;
9508;SDS011;4792;50.088;8.122;2023-01-19T07:38:25;24.63;;;14.40;;
9508;SDS011;4792;50.088;8.122;2023-01-19T07:40:59;28.60;;;14.00;;
9508;SDS011;4792;50.088;8.122;2023-01-19T07:43:28;25.50;;;13.27;;
9508;SDS011;4792;50.088;8.122;2023-01-19T07:45:56;25.83;;;13.87;;
9508;SDS011;4792;50.088;8.122;2023-01-19T07:48:25;22.87;;;13.53;;
9508;SDS011;4792;50.088;8.122;2023-01-19T07:50:57;22.87;;;14.33;;
9508;SDS011;4792;50.088;8.122;2023-01-19T07:53:26;27.70;;;15.20;;
9508;SDS011;4792;50.088;8.122;2023-01-19T07:55:54;21.50;;;13.53;;
9508;SDS011;4792;50.088;8.122;2023-01-19T07:58:24;23.80;;;14.23;;
9508;SDS011;4792;50.088;8.122;2023-01-19T08:00:52;25.73;;;14.67;;
9508;SDS011;4792;50.088;8.122;2023-01-19T08:03:21;29.07;;;16.23;;
9508;SDS011;4792;50.088;8.122;2023-01-19T08:05:49;28.43;;;14.43;;
9508;SDS011;4792;50.088;8.122;2023-01-19T08:08:19;26.67;;;15.73;;
9508;SDS011;4792;50.088;8.122;2023-01-19T08:10:48;31.23;;;15.27;;
9508;SDS011;4792;50.088;8.122;2023-01-19T08:13:17;30.97;;;16.17;;
9508;SDS011;4792;50.088;8.122;2023-01-19T08:15:49;28.27;;;16.20;;
9508;SDS011;4792;50.088;8.122;2023-01-19T08:18:17;30.50;;;16.77;;
9508;SDS011;4792;50.088;8.122;2023-01-19T08:20:46;27.97;;;16.17;;
9508;SDS011;4792;50.088;8.122;2023-01-19T08:23:14;26.37;;;14.97;;
9508;SDS011;4792;50.088;8.122;2023-01-19T08:25:43;24.20;;;14.17;;
9508;SDS011;4792;50.088;8.122;2023-01-19T08:28:12;23.23;;;14.90;;
9508;SDS011;4792;50.088;8.122;2023-01-19T08:30:41;22.73;;;15.17;;
9508;SDS011;4792;50.088;8.122;2023-01-19T08:33:12;22.13;;;13.80;;
9508;SDS011;4792;50.088;8.122;2023-01-19T08:35:40;24.77;;;14.37;;
9508;SDS011;4792;50.088;8.122;2023-01-19T08:38:09;25.23;;;13.77;;
9508;SDS011;4792;50.088;8.122;2023-01-19T08:40:38;24.23;;;13.47;;
9508;SDS011;4792;50.088;8.122;2023-01-19T08:43:08;22.03;;;13.03;;
9508;SDS011;4792;50.088;8.122;2023-01-19T08:45:38;19.80;;;11.90;;
9508;SDS011;4792;50.088;8.122;2023-01-19T08:48:07;21.57;;;11.50;;
9508;SDS011;4792;50.088;8.122;2023-01-19T08:50:37;17.67;;;10.77;;
9508;SDS011;4792;50.088;8.122;2023-01-19T08:53:05;16.53;;;10.50;;
9508;SDS011;4792;50.088;8.122;2023-01-19T08:55:34;14.17;;;9.10;;
9508;SDS011;4792;50.088;8.122;2023-01-19T08:58:03;13.87;;;9.07;;
9508;SDS011;4792;50.088;8.122;2023-01-19T09:00:34;15.57;;;8.97;;
9508;SDS011;4792;50.088;8.122;2023-01-19T09:03:04;14.33;;;8.70;;
9508;SDS011;4792;50.088;8.122;2023-01-19T09:05:34;11.43;;;7.73;;
9508;SDS011;4792;50.088;8.122;2023-01-19T09:08:05;9.93;;;7.33;;
9508;SDS011;4792;50.088;8.122;2023-01-19T09:10:36;9.97;;;7.00;;
9508;SDS011;4792;50.088;8.122;2023-01-19T09:13:06;10.60;;;6.87;;
9508;SDS011;4792;50.088;8.122;2023-01-19T09:15:36;9.97;;;7.50;;
9508;SDS011;4792;50.088;8.122;2023-01-19T09:18:05;10.30;;;7.30;;
9508;SDS011;4792;50.088;8.122;2023-01-19T09:20:36;11.83;;;6.80;;
9508;SDS011;4792;50.088;8.122;2023-01-19T09:23:04;11.90;;;7.07;;
9508;SDS011;4792;50.088;8.122;2023-01-19T09:25:32;11.27;;;7.10;;
9508;SDS011;4792;50.088;8.122;2023-01-19T09:28:00;9.17;;;6.83;;
9508;SDS011;4792;50.088;8.122;2023-01-19T09:30:29;9.73;;;6.83;;
9508;SDS011;4792;50.088;8.122;2023-01-19T09:33:00;11.90;;;7.23;;
9508;SDS011;4792;50.088;8.122;2023-01-19T09:35:31;11.13;;;6.87;;
9508;SDS011;4792;50.088;8.122;2023-01-19T09:38:01;9.17;;;7.03;;
9508;SDS011;4792;50.088;8.122;2023-01-19T09:40:29;10.03;;;7.37;;
9508;SDS011;4792;50.088;8.122;2023-01-19T09:43:00;10.97;;;6.97;;
9508;SDS011;4792;50.088;8.122;2023-01-19T09:45:42;11.10;;;7.37;;
9508;SDS011;4792;50.088;8.122;2023-01-19T09:48:20;12.63;;;7.90;;
9508;SDS011;4792;50.088;8.122;2023-01-19T09:50:56;12.40;;;7.43;;
9508;SDS011;4792;50.088;8.122;2023-01-19T09:53:30;14.70;;;8.37;;
9508;SDS011;4792;50.088;8.122;2023-01-19T09:56:09;14.93;;;8.50;;
9508;SDS011;4792;50.088;8.122;2023-01-19T09:58:40;15.20;;;8.70;;
9508;SDS011;4792;50.088;8.122;2023-01-19T10:01:12;15.60;;;9.03;;
9508;SDS011;4792;50.088;8.122;2023-01-19T10:04:16;12.77;;;8.80;;
9508;SDS011;4792;50.088;8.122;2023-01-19T10:07:02;16.63;;;10.23;;
9508;SDS011;4792;50.088;8.122;2023-01-19T10:09:41;14.47;;;9.53;;
9508;SDS011;4792;50.088;8.122;2023-01-19T10:12:20;16.83;;;10.37;;
9508;SDS011;4792;50.088;8.122;2023-01-19T10:15:01;18.50;;;10.77;;
9508;SDS011;4792;50.088;8.122;2023-01-19T10:17:36;15.60;;;10.10;;
9508;SDS011;4792;50.088;8.122;2023-01-19T10:20:10;19.37;;;10.57;;
9508;SDS011;4792;50.088;8.122;2023-01-19T10:22:46;14.80;;;10.03;;
9508;SDS011;4792;50.088;8.122;2023-01-19T10:25:18;14.70;;;10.43;;
9508;SDS011;4792;50.088;8.122;2023-01-19T10:27:49;19.37;;;10.43;;
9508;SDS011;4792;50.088;8.122;2023-01-19T10:30:18;14.50;;;9.37;;
9508;SDS011;4792;50.088;8.122;2023-01-19T10:32:49;14.17;;;9.90;;
9508;SDS011;4792;50.088;8.122;2023-01-19T10:35:20;16.60;;;10.17;;
9508;SDS011;4792;50.088;8.122;2023-01-19T10:37:50;17.77;;;9.73;;
9508;SDS011;4792;50.088;8.122;2023-01-19T10:40:28;18.87;;;10.50;;
9508;SDS011;4792;50.088;8.122;2023-01-19T10:43:01;15.30;;;10.10;;
9508;SDS011;4792;50.088;8.122;2023-01-19T10:46:05;14.90;;;9.77;;
9508;SDS011;4792;50.088;8.122;2023-01-19T10:48:40;14.07;;;9.77;;
9508;SDS011;4792;50.088;8.122;2023-01-19T10:51:09;13.03;;;8.80;;
9508;SDS011;4792;50.088;8.122;2023-01-19T10:53:38;17.37;;;10.33;;
9508;SDS011;4792;50.088;8.122;2023-01-19T10:56:14;19.93;;;11.27;;
9508;SDS011;4792;50.088;8.122;2023-01-19T10:58:43;14.17;;;9.43;;
9508;SDS011;4792;50.088;8.122;2023-01-19T11:01:12;19.43;;;10.70;;
9508;SDS011;4792;50.088;8.122;2023-01-19T11:03:43;15.87;;;10.13;;
9508;SDS011;4792;50.088;8.122;2023-01-19T11:06:19;14.53;;;9.57;;
9508;SDS011;4792;50.088;8.122;2023-01-19T11:08:49;14.07;;;9.33;;
9508;SDS011;4792;50.088;8.122;2023-01-19T11:11:20;14.53;;;8.97;;
9508;SDS011;4792;50.088;8.122;2023-01-19T11:14:03;14.77;;;8.77;;
9508;SDS011;4792;50.088;8.122;2023-01-19T11:16:36;15.07;;;9.43;;
9508;SDS011;4792;50.088;8.122;2023-01-19T11:19:05;13.83;;;8.93;;
9508;SDS011;4792;50.088;8.122;2023-01-19T11:21:51;11.33;;;8.30;;
9508;SDS011;4792;50.088;8.122;2023-01-19T11:24:20;11.73;;;7.97;;
9508;SDS011;4792;50.088;8.122;2023-01-19T11:26:54;11.97;;;7.97;;
9508;SDS011;4792;50.088;8.122;2023-01-19T11:29:28;13.03;;;8.17;;
9508;SDS011;4792;50.088;8.122;2023-01-19T11:32:08;11.63;;;7.97;;
9508;SDS011;4792;50.088;8.122;2023-01-19T11:34:37;11.33;;;8.03;;
9508;SDS011;4792;50.088;8.122;2023-01-19T11:39:54;9.60;;;7.13;;
9508;SDS011;4792;50.088;8.122;2023-01-19T11:42:25;10.60;;;7.33;;
9508;SDS011;4792;50.088;8.122;2023-01-19T11:44:58;12.43;;;7.67;;
9508;SDS011;4792;50.088;8.122;2023-01-19T11:47:32;10.23;;;6.97;;
9508;SDS011;4792;50.088;8.122;2023-01-19T11:50:06;10.37;;;6.40;;
9508;SDS011;4792;50.088;8.122;2023-01-19T11:52:42;11.87;;;6.20;;
9508;SDS011;4792;50.088;8.122;2023-01-19T11:55:13;11.17;;;6.57;;
9508;SDS011;4792;50.088;8.122;2023-01-19T11:57:47;8.30;;;6.30;;
9508;SDS011;4792;50.088;8.122;2023-01-19T12:00:24;10.57;;;5.70;;
9508;SDS011;4792;50.088;8.122;2023-01-19T12:02:57;10.97;;;5.93;;
9508;SDS011;4792;50.088;8.122;2023-01-19T12:05:32;9.07;;;6.10;;
9508;SDS011;4792;50.088;8.122;2023-01-19T12:08:03;10.27;;;5.20;;
9508;SDS011;4792;50.088;8.122;2023-01-19T12:10:37;10.00;;;5.23;;
9508;SDS011;4792;50.088;8.122;2023-01-19T12:13:13;7.57;;;4.67;;
9508;SDS011;4792;50.088;8.122;2023-01-19T12:15:46;9.30;;;5.57;;
9508;SDS011;4792;50.088;8.122;2023-01-19T12:18:18;8.63;;;5.43;;
9508;SDS011;4792;50.088;8.122;2023-01-19T12:20:49;6.20;;;4.70;;
9508;SDS011;4792;50.088;8.122;2023-01-19T12:23:30;8.83;;;5.60;;
9508;SDS011;4792;50.088;8.122;2023-01-19T12:26:25;12.63;;;4.50;;
9508;SDS011;4792;50.088;8.122;2023-01-19T12:28:59;7.33;;;5.67;;
9508;SDS011;4792;50.088;8.122;2023-01-19T12:31:30;15.90;;;9.30;;
9508;SDS011;4792;50.088;8.122;2023-01-19T12:37:03;10.33;;;6.73;;
9508;SDS011;4792;50.088;8.122;2023-01-19T12:39:34;11.57;;;8.50;;
9508;SDS011;4792;50.088;8.122;2023-01-19T12:42:14;12.03;;;8.83;;
9508;SDS011;4792;50.088;8.122;2023-01-19T12:44:47;11.10;;;7.67;;
9508;SDS011;4792;50.088;8.122;2023-01-19T12:47:19;30.63;;;17.57;;
9508;SDS011;4792;50.088;8.122;2023-01-19T12:49:50;9.37;;;5.10;;
9508;SDS011;4792;50.088;8.122;2023-01-19T12:52:28;8.70;;;5.43;;
9508;SDS011;4792;50.088;8.122;2023-01-19T12:55:00;11.80;;;8.00;;
9508;SDS011;4792;50.088;8.122;2023-01-19T12:57:33;8.03;;;4.87;;
9508;SDS011;4792;50.088;8.122;2023-01-19T13:00:07;20.87;;;15.03;;
9508;SDS011;4792;50.088;8.122;2023-01-19T13:02:56;7.60;;;5.70;;
9508;SDS011;4792;50.088;8.122;2023-01-19T13:08:24;15.93;;;10.70;;
9508;SDS011;4792;50.088;8.122;2023-01-19T13:17:04;12.90;;;8.47;;
9508;SDS011;4792;50.088;8.122;2023-01-19T13:19:56;12.93;;;8.03;;
9508;SDS011;4792;50.088;8.122;2023-01-19T13:25:46;6.80;;;4.10;;
9508;SDS011;4792;50.088;8.122;2023-01-19T13:28:17;8.87;;;4.50;;
9508;SDS011;4792;50.088;8.122;2023-01-19T13:30:52;6.67;;;4.63;;
9508;SDS011;4792;50.088;8.122;2023-01-19T13:33:24;8.80;;;5.00;;
9508;SDS011;4792;50.088;8.122;2023-01-19T13:35:56;8.90;;;4.23;;
9508;SDS011;4792;50.088;8.122;2023-01-19T13:38:25;10.60;;;5.77;;
9508;SDS011;4792;50.088;8.122;2023-01-19T13:40:54;10.20;;;4.47;;
9508;SDS011;4792;50.088;8.122;2023-01-19T13:43:26;7.97;;;4.77;;
9508;SDS011;4792;50.088;8.122;2023-01-19T13:45:58;6.93;;;4.97;;
9508;SDS011;4792;50.088;8.122;2023-01-19T13:48:30;7.40;;;4.57;;
9508;SDS011;4792;50.088;8.122;2023-01-19T13:51:00;5.77;;;4.23;;
9508;SDS011;4792;50.088;8.122;2023-01-19T13:53:30;7.27;;;4.90;;
9508;SDS011;4792;50.088;8.122;2023-01-19T13:56:06;8.50;;;4.97;;
9508;SDS011;4792;50.088;8.122;2023-01-19T13:58:36;7.13;;;4.27;;
9508;SDS011;4792;50.088;8.122;2023-01-19T14:01:04;9.00;;;4.43;;
9508;SDS011;4792;50.088;8.122;2023-01-19T14:03:35;8.57;;;5.00;;
9508;SDS011;4792;50.088;8.122;2023-01-19T14:06:03;8.80;;;4.57;;
9508;SDS011;4792;50.088;8.122;2023-01-19T14:08:31;8.47;;;4.90;;
9508;SDS011;4792;50.088;8.122;2023-01-19T14:11:00;7.33;;;4.70;;
9508;SDS011;4792;50.088;8.122;2023-01-19T14:13:30;10.23;;;4.77;;
9508;SDS011;4792;50.088;8.122;2023-01-19T14:16:00;8.00;;;4.47;;
9508;SDS011;4792;50.088;8.122;2023-01-19T14:18:32;8.40;;;4.70;;
9508;SDS011;4792;50.088;8.122;2023-01-19T14:21:17;8.63;;;4.53;;
9508;SDS011;4792;50.088;8.122;2023-01-19T14:23:46;8.13;;;4.83;;
9508;SDS011;4792;50.088;8.122;2023-01-19T14:29:13;9.10;;;4.17;;
9508;SDS011;4792;50.088;8.122;2023-01-19T14:31:48;9.80;;;4.50;;
9508;SDS011;4792;50.088;8.122;2023-01-19T14:34:32;8.67;;;4.53;;
9508;SDS011;4792;50.088;8.122;2023-01-19T14:37:03;10.43;;;5.50;;
9508;SDS011;4792;50.088;8.122;2023-01-19T14:39:32;17.53;;;10.17;;
9508;SDS011;4792;50.088;8.122;2023-01-19T14:42:02;8.30;;;4.77;;
9508;SDS011;4792;50.088;8.122;2023-01-19T14:44:33;8.07;;;4.27;;
9508;SDS011;4792;50.088;8.122;2023-01-19T14:47:03;7.37;;;4.83;;
9508;SDS011;4792;50.088;8.122;2023-01-19T14:49:35;10.30;;;5.60;;
9508;SDS011;4792;50.088;8.122;2023-01-19T14:52:14;7.97;;;4.77;;
9508;SDS011;4792;50.088;8.122;2023-01-19T14:54:47;12.47;;;5.30;;
9508;SDS011;4792;50.088;8.122;2023-01-19T14:57:16;9.70;;;5.80;;
9508;SDS011;4792;50.088;8.122;2023-01-19T14:59:44;12.73;;;7.40;;
9508;SDS011;4792;50.088;8.122;2023-01-19T15:02:15;8.03;;;4.83;;
9508;SDS011;4792;50.088;8.122;2023-01-19T15:04:46;7.50;;;5.30;;
9508;SDS011;4792;50.088;8.122;2023-01-19T15:07:15;9.90;;;5.03;;
9508;SDS011;4792;50.088;8.122;2023-01-19T15:09:45;7.77;;;4.37;;
9508;SDS011;4792;50.088;8.122;2023-01-19T15:12:14;7.97;;;4.27;;
9508;SDS011;4792;50.088;8.122;2023-01-19T15:14:43;7.40;;;4.23;;
9508;SDS011;4792;50.088;8.122;2023-01-19T15:17:15;10.00;;;4.27;;
9508;SDS011;4792;50.088;8.122;2023-01-19T15:19:55;9.07;;;4.53;;
9508;SDS011;4792;50.088;8.122;2023-01-19T15:22:23;6.60;;;4.40;;
9508;SDS011;4792;50.088;8.122;2023-01-19T15:24:54;7.83;;;4.50;;
9508;SDS011;4792;50.088;8.122;2023-01-19T15:27:25;12.83;;;7.67;;
9508;SDS011;4792;50.088;8.122;2023-01-19T15:29:53;11.63;;;7.07;;
9508;SDS011;4792;50.088;8.122;2023-01-19T15:32:21;20.23;;;8.63;;
9508;SDS011;4792;50.088;8.122;2023-01-19T15:34:49;13.37;;;6.20;;
9508;SDS011;4792;50.088;8.122;2023-01-19T15:37:19;11.20;;;5.37;;
9508;SDS011;4792;50.088;8.122;2023-01-19T15:39:47;10.57;;;4.87;;
9508;SDS011;4792;50.088;8.122;2023-01-19T15:42:15;8.97;;;4.87;;
9508;SDS011;4792;50.088;8.122;2023-01-19T15:44:43;6.13;;;4.40;;